Terminal Aerodrome Forecast
Issued by NWS Spokane, WA

Home | Current Version | Previous Version | Text Only | Print | Product List | Glossary On
Versions: 1 2 3 4 5 6 7 8 9 10 11 12 13 14 15 16 17 18 19 20 21 22 23 24 25 26 27 28 29
000
FTUS46 KOTX 262320
TAFGEG
TAF
KGEG 262320Z 2700/2724 00000KT 1SM -SN BR SCT006 OVC015
     FM270100 VRB03KT 2SM BR VCSH OVC009
     FM270500 VRB04KT 1SM BR OVC004
     FM271600 31003KT 1SM -SN BR OVC007
     FM272100 24006KT 2SM -SN BR OVC015=

USA.gov is the U.S. government's official web portal to all federal, state and local government web resources and services.